ENA weather

Kenai Municipal Airport
Kenai, Alaska, United States

Public forecast

Using degrees Fahrenheit for public forecast. Weather courtesy of forecast.io.

Current aviation weather report (METAR) for Kenai Municipal Airport

Retrieved 2020/07/08 20:53 UTC (39 minutes ago):

PAEN 082053Z 32006KT 9SM -RA FEW009 BKN041 OVC050 14/12 A2987

Aviation forecast (TAF) for Kenai Municipal Airport

Retrieved 2020/07/08 18:39 UTC (3 hours ago):

TAF PAEN 081736Z 0818/0918 22007KT P6SM -RA FEW012 OVC025 TEMPO 0818/0822 5SM -RA BR BKN012 OVC025 FM090800 33005KT P6SM SCT020 BKN050